Time;durP1;ratioP1;P1;durP2;ratioP2;P2;SDS_P1;SDS_P2;PMS_P1;PMS_P2;Temp;Humidity;BMP_temperature;BMP_pressure;BME280_temperature;BME280_humidity;BME280_pressure;Samples;Min_cycle;Max_cycle;Signal;HPM_P1;HPM_P2
2022/03/15 00:00:34;;;;;;;11.50;5.10;;;9.80;52.00;;;;;;5021742;28;20053;-43
2022/03/15 00:03:02;;;;;;;14.55;4.88;;;9.80;52.10;;;;;;5022315;28;20520;-42
2022/03/15 00:05:31;;;;;;;9.73;4.57;;;9.80;52.60;;;;;;5019759;28;20053;-43
2022/03/15 00:07:59;;;;;;;10.60;4.68;;;9.80;52.20;;;;;;5021106;28;20079;-43
2022/03/15 00:10:27;;;;;;;10.07;4.82;;;9.80;52.20;;;;;;5020848;28;20493;-43
2022/03/15 00:12:56;;;;;;;10.02;4.78;;;9.80;52.30;;;;;;5020467;28;20116;-43
2022/03/15 00:15:25;;;;;;;14.48;5.00;;;9.80;52.30;;;;;;5020748;28;20486;-42
2022/03/15 00:17:53;;;;;;;8.38;4.38;;;9.80;52.30;;;;;;5020757;28;20060;-45
2022/03/15 00:20:23;;;;;;;8.95;4.75;;;9.70;52.20;;;;;;5018238;28;20502;-43
2022/03/15 00:22:55;;;;;;;14.60;5.07;;;9.70;52.30;;;;;;5023468;28;20049;-42
2022/03/15 00:25:23;;;;;;;12.35;5.80;;;9.70;52.40;;;;;;5020766;28;20053;-43
2022/03/15 00:27:52;;;;;;;19.08;5.65;;;9.70;52.40;;;;;;5023114;28;20418;-43
2022/03/15 00:30:21;;;;;;;11.40;4.80;;;9.70;52.50;;;;;;5017813;28;20057;-43
2022/03/15 00:32:49;;;;;;;9.25;4.93;;;9.70;52.50;;;;;;5021337;28;20057;-43
2022/03/15 00:35:18;;;;;;;10.50;4.63;;;9.70;53.00;;;;;;5020017;28;20053;-43
2022/03/15 00:37:46;;;;;;;11.55;5.10;;;9.70;52.50;;;;;;5023749;28;20057;-43
2022/03/15 00:40:16;;;;;;;9.57;4.38;;;9.70;52.60;;;;;;5024079;28;20394;-43
2022/03/15 00:42:48;;;;;;;10.77;4.82;;;9.70;52.70;;;;;;5022114;28;20053;-43
2022/03/15 00:45:16;;;;;;;10.35;4.10;;;9.70;52.70;;;;;;5021896;28;20049;-43
2022/03/15 00:47:43;;;;;;;10.63;4.53;;;9.70;52.70;;;;;;5021042;28;20075;-43
2022/03/15 00:50:11;;;;;;;13.52;3.90;;;9.70;52.70;;;;;;5017838;28;20053;-43
2022/03/15 00:52:39;;;;;;;10.88;4.65;;;9.70;52.70;;;;;;5022564;28;20064;-44
2022/03/15 00:55:07;;;;;;;14.52;4.95;;;9.70;52.70;;;;;;5016459;28;20056;-43
2022/03/15 00:57:36;;;;;;;10.30;3.78;;;9.70;52.80;;;;;;5019125;28;20046;-43
2022/03/15 01:00:05;;;;;;;8.57;4.05;;;9.70;52.80;;;;;;5019860;28;20045;-43
2022/03/15 01:02:32;;;;;;;11.93;4.10;;;9.70;52.80;;;;;;5021761;28;20053;-43
2022/03/15 01:05:00;;;;;;;11.25;4.53;;;9.70;52.80;;;;;;5018421;28;20049;-42
2022/03/15 01:07:28;;;;;;;9.10;4.22;;;9.70;52.70;;;;;;5022109;28;20049;-43
2022/03/15 01:09:55;;;;;;;9.48;4.43;;;9.70;52.70;;;;;;5019724;28;20060;-43
2022/03/15 01:12:23;;;;;;;13.20;4.35;;;9.70;52.70;;;;;;5020894;28;20432;-43
2022/03/15 01:14:51;;;;;;;10.82;4.30;;;9.70;52.80;;;;;;5020713;28;20054;-42
2022/03/15 01:17:19;;;;;;;11.25;3.85;;;9.70;52.80;;;;;;5020133;28;20049;-43
2022/03/15 01:19:46;;;;;;;10.32;3.97;;;9.70;52.80;;;;;;5018864;28;20053;-43
2022/03/15 01:22:14;;;;;;;9.00;4.28;;;9.60;52.70;;;;;;5021268;28;20050;-43
2022/03/15 01:24:42;;;;;;;10.00;4.43;;;9.70;52.80;;;;;;5021952;28;20053;-46
2022/03/15 01:27:09;;;;;;;7.15;3.90;;;9.60;52.80;;;;;;5022089;28;20061;-43
2022/03/15 01:29:37;;;;;;;10.93;4.25;;;9.60;52.80;;;;;;5021088;28;20057;-42
2022/03/15 01:32:06;;;;;;;9.20;3.78;;;9.70;52.90;;;;;;5019104;28;20054;-43
2022/03/15 01:34:34;;;;;;;9.18;4.22;;;9.60;52.90;;;;;;5017432;28;20073;-42
2022/03/15 01:37:01;;;;;;;11.50;4.20;;;9.60;52.80;;;;;;5022102;28;20509;-43
2022/03/15 01:39:29;;;;;;;8.75;3.80;;;9.60;52.90;;;;;;5021948;28;20061;-44
2022/03/15 01:41:56;;;;;;;7.10;3.67;;;9.60;52.80;;;;;;5020745;28;20061;-44
2022/03/15 01:44:26;;;;;;;9.70;3.92;;;9.60;52.80;;;;;;5018484;28;20525;-45
2022/03/15 01:46:54;;;;;;;10.93;4.40;;;9.60;52.90;;;;;;5019417;28;20478;-43
2022/03/15 01:49:23;;;;;;;8.95;4.50;;;9.60;52.90;;;;;;5018770;28;20056;-42
2022/03/15 01:51:51;;;;;;;10.30;4.38;;;9.60;52.90;;;;;;5021039;28;20052;-42
2022/03/15 01:54:20;;;;;;;12.20;4.10;;;9.60;52.90;;;;;;5018132;28;20057;-44
2022/03/15 01:56:48;;;;;;;8.32;3.70;;;9.60;52.90;;;;;;5019667;28;20054;-43
2022/03/15 01:59:17;;;;;;;8.32;4.13;;;9.60;52.90;;;;;;5019226;28;20055;-43
2022/03/15 02:01:46;;;;;;;11.73;4.63;;;9.60;52.90;;;;;;5021604;28;20057;-42
2022/03/15 02:04:15;;;;;;;7.28;3.88;;;9.60;53.00;;;;;;5018568;28;20417;-43
2022/03/15 02:06:44;;;;;;;7.47;3.67;;;9.60;52.90;;;;;;5020321;28;20053;-43
2022/03/15 02:09:13;;;;;;;8.18;3.75;;;9.50;52.90;;;;;;5021455;28;20061;-46
2022/03/15 02:11:42;;;;;;;9.43;4.03;;;9.50;52.90;;;;;;5020678;28;20494;-44
2022/03/15 02:14:11;;;;;;;12.32;4.25;;;9.50;52.90;;;;;;5018916;28;20064;-43
2022/03/15 02:16:38;;;;;;;10.50;4.22;;;9.50;52.90;;;;;;5019950;28;20057;-43
2022/03/15 02:19:06;;;;;;;9.68;4.28;;;9.50;53.00;;;;;;5020316;28;20054;-43
2022/03/15 02:21:36;;;;;;;10.10;4.05;;;9.50;53.00;;;;;;5021648;28;20045;-43
2022/03/15 02:24:05;;;;;;;9.43;4.40;;;9.50;53.10;;;;;;5018995;28;20060;-43
2022/03/15 02:26:32;;;;;;;8.23;4.20;;;9.50;53.00;;;;;;5020069;28;20060;-44
2022/03/15 02:29:00;;;;;;;11.63;4.45;;;9.50;53.10;;;;;;5020438;28;20429;-42
2022/03/15 02:31:27;;;;;;;9.52;3.92;;;9.50;53.10;;;;;;5019297;28;20050;-43
2022/03/15 02:33:55;;;;;;;10.32;4.28;;;9.50;53.10;;;;;;5019709;28;20080;-42
2022/03/15 02:36:23;;;;;;;9.43;4.07;;;9.50;53.20;;;;;;5023722;28;20053;-43
2022/03/15 02:38:52;;;;;;;10.57;3.65;;;9.40;53.10;;;;;;5019096;28;20045;-42
2022/03/15 02:41:19;;;;;;;10.07;3.80;;;9.40;53.10;;;;;;5024257;28;20053;-43
2022/03/15 02:43:47;;;;;;;10.68;4.47;;;9.40;53.10;;;;;;5019506;28;20068;-43
2022/03/15 02:46:15;;;;;;;9.00;3.92;;;9.40;53.20;;;;;;5023713;28;20491;-43
2022/03/15 02:48:43;;;;;;;10.38;4.45;;;9.40;53.20;;;;;;5024103;28;20060;-46
2022/03/15 02:51:11;;;;;;;8.23;3.42;;;9.40;53.20;;;;;;5024630;28;20053;-43
2022/03/15 02:53:42;;;;;;;9.63;3.88;;;9.40;53.20;;;;;;5023376;28;20057;-42
2022/03/15 02:56:11;;;;;;;9.80;3.72;;;9.40;53.20;;;;;;5022122;28;20053;-45
2022/03/15 02:58:39;;;;;;;9.95;3.92;;;9.40;53.20;;;;;;5024152;28;21063;-42
2022/03/15 03:01:07;;;;;;;8.73;3.88;;;9.40;53.20;;;;;;5024864;28;20053;-42
2022/03/15 03:03:35;;;;;;;12.02;3.80;;;9.40;53.20;;;;;;5020844;28;20053;-47
2022/03/15 03:06:02;;;;;;;9.63;4.10;;;9.40;53.20;;;;;;5023156;28;20057;-44
2022/03/15 03:08:30;;;;;;;10.18;3.97;;;9.40;53.20;;;;;;5022970;28;20054;-43
2022/03/15 03:10:58;;;;;;;9.85;4.00;;;9.40;53.20;;;;;;5023845;28;20593;-42
2022/03/15 03:13:27;;;;;;;11.18;4.20;;;9.40;53.70;;;;;;5023758;28;20053;-46
2022/03/15 03:15:57;;;;;;;10.52;4.03;;;9.40;53.30;;;;;;5020841;28;20061;-42
2022/03/15 03:18:25;;;;;;;13.18;4.30;;;9.30;53.30;;;;;;5023766;28;20064;-43
2022/03/15 03:20:54;;;;;;;12.02;3.97;;;9.30;53.50;;;;;;5024563;28;20092;-42
2022/03/15 03:23:21;;;;;;;12.25;4.50;;;9.30;53.40;;;;;;5024337;28;20056;-43
2022/03/15 03:25:49;;;;;;;8.90;3.92;;;9.30;53.50;;;;;;5022058;28;20409;-44
2022/03/15 03:28:17;;;;;;;12.82;4.15;;;9.30;53.60;;;;;;5023310;28;20041;-44
2022/03/15 03:30:48;;;;;;;9.40;3.92;;;9.30;53.60;;;;;;5024573;28;20054;-43
2022/03/15 03:33:16;;;;;;;12.10;4.30;;;9.30;53.80;;;;;;5022944;28;20053;-42
2022/03/15 03:35:44;;;;;;;10.30;4.03;;;9.30;53.80;;;;;;5020081;28;20053;-43
2022/03/15 03:38:11;;;;;;;9.70;4.45;;;9.30;53.80;;;;;;5024165;28;20057;-42
2022/03/15 03:40:39;;;;;;;9.13;4.25;;;9.30;53.90;;;;;;5024687;28;20061;-42
2022/03/15 03:43:07;;;;;;;10.50;4.03;;;9.30;53.90;;;;;;5023549;28;20072;-43
2022/03/15 03:45:36;;;;;;;7.47;3.63;;;9.20;53.90;;;;;;5021908;28;20061;-43
2022/03/15 03:48:06;;;;;;;12.27;4.18;;;9.30;54.00;;;;;;5023971;28;20050;-43
2022/03/15 03:50:34;;;;;;;7.07;3.58;;;9.20;54.00;;;;;;5023126;28;20053;-42
2022/03/15 03:53:01;;;;;;;14.27;4.65;;;9.30;53.90;;;;;;5021389;28;20055;-46
2022/03/15 03:55:29;;;;;;;12.32;3.70;;;9.30;53.90;;;;;;5020273;28;20045;-43
2022/03/15 03:57:56;;;;;;;10.35;3.63;;;9.30;54.00;;;;;;5023140;28;20049;-42
2022/03/15 04:00:24;;;;;;;10.73;3.83;;;9.30;53.90;;;;;;5022746;28;20488;-43
2022/03/15 04:02:52;;;;;;;4.70;2.97;;;9.30;53.90;;;;;;5024765;28;20060;-42
2022/03/15 04:05:21;;;;;;;9.20;3.42;;;9.30;53.90;;;;;;5019546;28;20069;-43
2022/03/15 04:07:49;;;;;;;7.75;3.20;;;9.30;53.90;;;;;;5022090;28;20060;-42
2022/03/15 04:10:18;;;;;;;8.40;3.50;;;9.30;53.90;;;;;;5022652;28;20986;-43
2022/03/15 04:12:46;;;;;;;6.90;2.95;;;9.30;53.90;;;;;;5022818;28;20057;-43
2022/03/15 04:15:13;;;;;;;7.20;2.85;;;9.40;54.00;;;;;;5018604;28;20060;-42
2022/03/15 04:17:41;;;;;;;6.00;2.72;;;9.40;53.90;;;;;;5024151;28;20053;-42
2022/03/15 04:20:09;;;;;;;6.22;2.65;;;9.30;53.90;;;;;;5021892;28;20489;-43
2022/03/15 04:22:38;;;;;;;11.77;3.35;;;9.40;53.90;;;;;;5024168;28;20061;-43
2022/03/15 04:25:07;;;;;;;11.07;3.00;;;9.40;54.00;;;;;;5021565;28;20398;-42
2022/03/15 04:27:34;;;;;;;8.15;3.08;;;9.40;53.90;;;;;;5021179;28;20056;-43
2022/03/15 04:30:02;;;;;;;11.27;3.35;;;9.40;53.90;;;;;;5022335;28;20061;-42
2022/03/15 04:32:30;;;;;;;6.65;2.85;;;9.40;53.90;;;;;;5023633;28;20517;-42
2022/03/15 04:34:57;;;;;;;10.68;2.67;;;9.40;53.90;;;;;;5019419;28;20057;-42
2022/03/15 04:37:25;;;;;;;10.27;3.42;;;9.40;53.80;;;;;;5022570;28;20065;-43
2022/03/15 04:39:56;;;;;;;6.97;2.95;;;9.40;53.80;;;;;;5023278;28;20061;-43
2022/03/15 04:42:24;;;;;;;8.25;3.38;;;9.40;53.80;;;;;;5023925;28;20061;-42
2022/03/15 04:44:51;;;;;;;9.88;3.00;;;9.50;53.90;;;;;;5020071;28;20064;-42
2022/03/15 04:47:19;;;;;;;9.65;2.50;;;9.50;53.80;;;;;;5023270;28;20073;-43
2022/03/15 04:49:46;;;;;;;8.32;2.88;;;9.50;53.80;;;;;;5020726;28;20046;-42
2022/03/15 04:52:14;;;;;;;8.00;2.60;;;9.50;53.80;;;;;;5023005;28;20041;-42
2022/03/15 04:54:41;;;;;;;6.13;2.65;;;9.50;54.20;;;;;;5016721;28;20057;-43
2022/03/15 04:57:10;;;;;;;8.15;3.03;;;9.50;53.70;;;;;;5023405;28;20120;-43
2022/03/15 04:59:38;;;;;;;8.32;2.92;;;9.50;53.80;;;;;;5021072;28;20073;-43
2022/03/15 05:02:06;;;;;;;9.88;3.22;;;9.50;53.80;;;;;;5022116;28;20482;-44
2022/03/15 05:04:34;;;;;;;15.82;6.57;;;9.50;53.70;;;;;;5019487;28;20064;-42
2022/03/15 05:07:01;;;;;;;18.77;7.72;;;9.50;53.70;;;;;;5021788;28;20598;-43
2022/03/15 05:09:29;;;;;;;13.43;3.92;;;9.50;53.60;;;;;;5020974;28;20048;-42
2022/03/15 05:11:55;;;;;;;9.35;3.13;;;9.50;53.60;;;;;;5020945;28;20053;-43
2022/03/15 05:14:24;;;;;;;6.03;2.92;;;9.50;53.70;;;;;;5017603;28;20053;-42
2022/03/15 05:16:52;;;;;;;7.32;2.55;;;9.50;53.60;;;;;;5016620;28;20053;-42
2022/03/15 05:19:19;;;;;;;7.60;2.78;;;9.60;53.70;;;;;;5015229;28;20072;-42
2022/03/15 05:21:47;;;;;;;6.97;3.08;;;9.60;53.70;;;;;;5021385;28;20053;-45
2022/03/15 05:24:14;;;;;;;5.60;2.67;;;9.50;53.60;;;;;;5020109;28;20517;-43
2022/03/15 05:26:42;;;;;;;8.40;2.80;;;9.60;53.70;;;;;;5018811;28;20473;-43
2022/03/15 05:29:09;;;;;;;9.93;2.60;;;9.60;53.60;;;;;;5018337;28;20050;-42
2022/03/15 05:31:39;;;;;;;23.85;8.80;;;9.60;53.70;;;;;;5019282;28;20068;-42
2022/03/15 05:34:06;;;;;;;25.25;11.50;;;9.60;53.70;;;;;;5019704;28;20065;-43
2022/03/15 05:36:33;;;;;;;13.57;4.57;;;9.60;53.80;;;;;;5021394;28;20057;-43
2022/03/15 05:39:01;;;;;;;7.55;3.35;;;9.60;53.80;;;;;;5020946;28;20061;-42
2022/03/15 05:41:29;;;;;;;7.97;3.30;;;9.60;53.80;;;;;;5022924;28;20386;-42
2022/03/15 05:43:56;;;;;;;9.13;3.00;;;9.60;53.80;;;;;;5019485;28;20548;-42
2022/03/15 05:46:24;;;;;;;7.47;3.00;;;9.60;53.80;;;;;;5021377;28;20064;-42
2022/03/15 05:48:53;;;;;;;5.15;3.05;;;9.60;53.80;;;;;;5019014;28;20402;-45
2022/03/15 05:51:20;;;;;;;8.75;2.72;;;9.60;53.80;;;;;;5019651;28;20544;-42
2022/03/15 05:53:48;;;;;;;9.00;3.17;;;9.60;53.80;;;;;;5019036;28;20057;-42
2022/03/15 05:56:15;;;;;;;8.38;2.70;;;9.60;53.80;;;;;;5021514;28;20058;-43
2022/03/15 05:58:43;;;;;;;8.20;3.08;;;9.60;53.80;;;;;;5019678;28;20425;-42
2022/03/15 06:01:11;;;;;;;60.40;23.63;;;9.70;53.80;;;;;;5021930;28;20421;-43
2022/03/15 06:03:38;;;;;;;27.10;8.95;;;9.70;53.80;;;;;;5018948;28;20065;-42
2022/03/15 06:06:07;;;;;;;13.00;5.40;;;9.70;53.80;;;;;;5021124;28;20049;-43
2022/03/15 06:08:35;;;;;;;9.75;3.42;;;9.70;53.70;;;;;;5017776;28;20080;-45
2022/03/15 06:11:03;;;;;;;7.32;3.03;;;9.80;53.70;;;;;;5023795;28;20064;-43
2022/03/15 06:13:30;;;;;;;6.72;2.90;;;9.70;53.70;;;;;;5024049;28;20054;-43
2022/03/15 06:15:58;;;;;;;8.23;2.58;;;9.80;53.70;;;;;;5021594;28;20779;-42
2022/03/15 06:18:25;;;;;;;8.43;2.90;;;9.80;53.70;;;;;;5024485;28;20053;-43
2022/03/15 06:20:53;;;;;;;8.07;3.15;;;9.80;53.70;;;;;;5026336;28;20057;-42
2022/03/15 06:23:23;;;;;;;6.15;2.55;;;9.80;53.70;;;;;;5020450;28;20076;-42
2022/03/15 06:25:51;;;;;;;7.22;2.33;;;9.90;53.70;;;;;;5017291;28;20045;-44
2022/03/15 06:28:18;;;;;;;8.63;3.13;;;9.90;53.70;;;;;;5018629;28;20064;-43
2022/03/15 06:30:46;;;;;;;6.75;2.53;;;9.90;53.60;;;;;;5024801;28;20056;-43
2022/03/15 06:33:14;;;;;;;5.18;2.42;;;9.90;53.70;;;;;;5019240;28;20053;-42
2022/03/15 06:35:42;;;;;;;9.52;3.10;;;10.00;53.60;;;;;;5017438;28;20057;-43
2022/03/15 06:38:11;;;;;;;10.02;3.05;;;10.00;53.60;;;;;;5024230;28;20119;-43
2022/03/15 06:40:42;;;;;;;6.25;2.65;;;10.00;53.50;;;;;;5023186;28;20057;-42
2022/03/15 06:43:13;;;;;;;4.78;2.58;;;10.00;53.50;;;;;;5025308;28;20082;-42
2022/03/15 06:45:42;;;;;;;16.52;3.40;;;10.00;53.50;;;;;;5025255;28;20058;-43
2022/03/15 06:48:10;;;;;;;7.95;3.25;;;10.10;53.50;;;;;;5024293;28;20061;-44
2022/03/15 06:50:39;;;;;;;9.48;2.72;;;10.10;53.40;;;;;;5023391;28;20060;-43
2022/03/15 06:53:07;;;;;;;6.93;2.97;;;10.10;53.30;;;;;;5024279;28;20287;-42
2022/03/15 06:55:35;;;;;;;11.68;3.95;;;10.10;53.30;;;;;;5025192;28;20045;-46
2022/03/15 06:58:04;;;;;;;8.70;2.95;;;10.20;53.20;;;;;;5017772;28;20402;-43
2022/03/15 07:00:32;;;;;;;7.75;3.15;;;10.20;53.20;;;;;;5025263;28;20576;-42
2022/03/15 07:02:59;;;;;;;8.38;3.13;;;10.20;53.20;;;;;;5025354;28;20417;-43
2022/03/15 07:05:29;;;;;;;46.45;18.40;;;10.30;53.20;;;;;;5022557;28;20045;-43
2022/03/15 07:07:57;;;;;;;13.52;4.93;;;10.30;53.20;;;;;;5024401;28;20053;-42
2022/03/15 07:10:25;;;;;;;10.85;4.10;;;10.30;53.10;;;;;;5019419;28;20038;-42
2022/03/15 07:12:52;;;;;;;8.18;3.03;;;10.30;53.00;;;;;;5025290;28;20793;-42
2022/03/15 07:15:21;;;;;;;7.80;3.67;;;10.40;53.00;;;;;;5025030;28;20576;-42
2022/03/15 07:17:53;;;;;;;7.18;2.63;;;10.40;53.00;;;;;;5024065;28;20064;-42
2022/03/15 07:20:21;;;;;;;6.68;3.35;;;10.40;52.90;;;;;;5022165;28;20072;-42
2022/03/15 07:22:49;;;;;;;8.20;3.47;;;10.50;53.00;;;;;;5014284;28;20064;-44
2022/03/15 07:25:17;;;;;;;10.27;3.50;;;10.50;53.00;;;;;;5018187;28;20489;-43
2022/03/15 07:27:44;;;;;;;11.35;3.67;;;10.50;52.90;;;;;;5014168;28;20049;-44
2022/03/15 07:30:13;;;;;;;5.15;3.10;;;10.50;52.80;;;;;;5019631;28;20058;-42
2022/03/15 07:32:42;;;;;;;11.52;3.63;;;10.50;52.70;;;;;;5021450;28;20064;-43
2022/03/15 07:35:10;;;;;;;10.50;3.92;;;10.50;52.80;;;;;;5014551;28;20064;-43
2022/03/15 07:37:39;;;;;;;10.30;4.13;;;10.60;52.80;;;;;;5012810;28;20073;-42
2022/03/15 07:40:08;;;;;;;10.70;3.50;;;10.60;52.80;;;;;;5012935;28;20053;-43
2022/03/15 07:42:36;;;;;;;10.48;3.88;;;10.60;52.80;;;;;;5013590;28;20430;-42
2022/03/15 07:45:04;;;;;;;9.48;3.50;;;10.60;52.70;;;;;;5013063;28;20546;-42
2022/03/15 07:47:31;;;;;;;10.88;4.20;;;10.70;52.90;;;;;;5012733;28;20056;-42
2022/03/15 07:50:00;;;;;;;8.80;3.50;;;10.70;53.00;;;;;;5012581;28;20111;-44
2022/03/15 07:52:27;;;;;;;6.93;3.63;;;10.70;52.90;;;;;;5020706;28;20430;-42
2022/03/15 07:54:55;;;;;;;9.07;3.72;;;10.80;52.90;;;;;;5008290;28;20505;-44
2022/03/15 07:57:22;;;;;;;9.20;3.28;;;10.80;52.80;;;;;;5008100;28;20756;-42
2022/03/15 07:59:50;;;;;;;11.23;3.80;;;10.80;52.80;;;;;;5018402;28;20065;-44
2022/03/15 08:02:17;;;;;;;9.43;3.75;;;10.80;52.70;;;;;;5012483;28;20045;-46
2022/03/15 08:04:45;;;;;;;8.35;3.75;;;10.90;52.70;;;;;;5013694;28;20057;-45
2022/03/15 08:07:14;;;;;;;11.20;4.20;;;10.90;52.60;;;;;;5013299;28;20413;-43
2022/03/15 08:09:41;;;;;;;9.88;4.20;;;10.90;52.50;;;;;;5009979;28;20423;-42
2022/03/15 08:12:09;;;;;;;10.40;3.20;;;11.00;53.00;;;;;;5015253;28;20057;-42
2022/03/15 08:14:36;;;;;;;8.20;3.67;;;11.10;52.60;;;;;;5016706;28;20060;-44
2022/03/15 08:17:04;;;;;;;40.80;18.13;;;11.10;52.50;;;;;;5021621;28;20046;-43
2022/03/15 08:19:32;;;;;;;12.40;5.90;;;11.10;52.40;;;;;;5021308;28;20064;-43
2022/03/15 08:22:02;;;;;;;10.20;4.28;;;11.20;52.30;;;;;;5024003;28;20060;-42
2022/03/15 08:24:31;;;;;;;11.23;4.05;;;11.20;52.30;;;;;;5024151;28;20049;-43
2022/03/15 08:26:59;;;;;;;9.02;3.97;;;11.20;52.20;;;;;;5023439;28;20053;-42
2022/03/15 08:29:29;;;;;;;8.00;3.60;;;11.30;52.20;;;;;;5022631;28;20053;-42
2022/03/15 08:31:56;;;;;;;9.98;4.05;;;11.30;52.10;;;;;;5022422;28;20045;-42
2022/03/15 08:34:24;;;;;;;7.85;3.40;;;11.30;52.10;;;;;;5020324;28;20056;-42
2022/03/15 08:36:53;;;;;;;9.88;4.07;;;11.40;52.10;;;;;;5023275;28;20068;-42
2022/03/15 08:39:22;;;;;;;14.10;3.63;;;11.50;52.10;;;;;;5015340;28;20413;-42
2022/03/15 08:48:55;;;;;;;8.70;3.72;;;11.60;51.70;;;;;;5001272;28;20049;-44
2022/03/15 08:51:22;;;;;;;6.82;3.65;;;11.70;51.70;;;;;;5001661;28;20057;-42
2022/03/15 08:53:50;;;;;;;8.13;3.20;;;11.70;51.60;;;;;;5001539;28;20054;-42
2022/03/15 08:56:18;;;;;;;6.65;2.97;;;11.70;51.60;;;;;;5002054;28;20058;-42
2022/03/15 08:58:45;;;;;;;9.65;3.40;;;11.80;51.60;;;;;;5001322;28;20062;-46
2022/03/15 09:01:13;;;;;;;7.15;3.28;;;11.80;51.60;;;;;;5000727;28;20046;-43
2022/03/15 09:03:40;;;;;;;5.55;3.25;;;11.90;51.50;;;;;;5000149;28;20422;-42
2022/03/15 09:06:09;;;;;;;8.13;3.33;;;11.90;51.40;;;;;;5001514;28;20057;-42
2022/03/15 09:08:37;;;;;;;8.10;3.20;;;12.00;51.30;;;;;;5001554;28;20516;-43
2022/03/15 09:11:05;;;;;;;8.15;3.47;;;12.00;51.20;;;;;;5001769;28;20541;-42
2022/03/15 09:13:33;;;;;;;9.75;3.60;;;12.00;51.20;;;;;;5000649;28;20049;-42
2022/03/15 09:16:01;;;;;;;7.90;3.65;;;12.10;51.20;;;;;;5001790;28;20061;-43
2022/03/15 09:18:28;;;;;;;7.22;3.15;;;12.10;51.20;;;;;;4999112;28;20522;-48
2022/03/15 09:20:56;;;;;;;9.25;4.45;;;12.20;51.20;;;;;;5001136;28;20057;-43
2022/03/15 09:23:25;;;;;;;6.05;3.42;;;12.20;51.20;;;;;;5002661;28;20050;-42
2022/03/15 09:25:52;;;;;;;7.88;3.45;;;12.20;51.20;;;;;;5000882;28;20054;-43
2022/03/15 09:28:20;;;;;;;11.88;3.83;;;12.30;51.20;;;;;;5001447;28;20075;-44
2022/03/15 09:30:47;;;;;;;5.57;3.53;;;12.30;51.20;;;;;;5000425;28;20061;-42
2022/03/15 09:33:15;;;;;;;7.07;3.45;;;12.30;51.20;;;;;;5000645;28;20573;-43
2022/03/15 09:35:43;;;;;;;7.53;3.85;;;12.40;51.30;;;;;;4999793;28;20054;-42
2022/03/15 09:38:11;;;;;;;7.60;4.03;;;12.40;51.30;;;;;;5002536;28;20060;-42
2022/03/15 09:40:41;;;;;;;12.13;4.15;;;12.40;51.20;;;;;;5002359;28;20517;-44
2022/03/15 09:43:12;;;;;;;12.93;4.15;;;12.40;51.20;;;;;;5000418;28;20057;-42
2022/03/15 09:45:41;;;;;;;7.80;3.67;;;12.50;51.10;;;;;;5002758;28;20053;-43
2022/03/15 09:48:12;;;;;;;8.55;3.42;;;12.50;51.00;;;;;;5015292;28;20053;-43
2022/03/15 09:50:41;;;;;;;8.63;4.00;;;12.50;51.00;;;;;;5019193;28;20042;-43
2022/03/15 09:53:10;;;;;;;7.57;3.67;;;12.60;51.00;;;;;;5014330;28;20060;-42
2022/03/15 09:55:40;;;;;;;5.63;2.97;;;12.60;51.00;;;;;;5011568;28;20064;-42
2022/03/15 09:58:07;;;;;;;7.05;3.67;;;12.60;51.00;;;;;;5017425;28;20057;-42
2022/03/15 10:00:37;;;;;;;7.72;3.50;;;12.70;51.10;;;;;;5016056;28;20076;-42
2022/03/15 10:03:04;;;;;;;8.82;4.10;;;12.70;51.50;;;;;;5015864;28;20053;-46
2022/03/15 10:05:32;;;;;;;8.38;4.00;;;12.70;50.90;;;;;;5016135;28;20060;-43
2022/03/15 10:07:59;;;;;;;7.60;4.13;;;12.70;50.90;;;;;;5019177;28;20049;-43
2022/03/15 10:10:27;;;;;;;6.97;4.10;;;12.80;51.00;;;;;;5016541;28;20060;-42
2022/03/15 10:12:56;;;;;;;9.77;4.22;;;12.80;51.10;;;;;;5017962;28;20390;-42
2022/03/15 10:15:25;;;;;;;8.85;4.32;;;12.80;51.10;;;;;;5014681;28;20056;-42
2022/03/15 10:17:56;;;;;;;6.40;4.00;;;12.90;51.10;;;;;;5017848;28;20060;-44
2022/03/15 10:20:28;;;;;;;9.27;4.63;;;12.80;51.30;;;;;;5017413;28;20049;-42
2022/03/15 10:22:58;;;;;;;8.70;4.30;;;12.90;51.30;;;;;;5019380;28;20064;-44
2022/03/15 10:25:27;;;;;;;12.40;3.95;;;12.90;51.40;;;;;;5012179;28;20054;-46
2022/03/15 10:27:58;;;;;;;6.20;4.00;;;12.90;51.50;;;;;;5011923;28;20052;-44
2022/03/15 10:30:27;;;;;;;9.48;4.30;;;12.90;51.60;;;;;;4999334;28;20068;-42
2022/03/15 10:32:55;;;;;;;8.95;4.35;;;12.90;51.70;;;;;;5018297;28;20045;-42
2022/03/15 10:35:25;;;;;;;9.98;4.20;;;12.90;51.90;;;;;;5017431;28;20068;-42
2022/03/15 10:37:54;;;;;;;9.25;4.70;;;12.90;52.10;;;;;;5020169;28;20706;-42
2022/03/15 10:40:33;;;;;;;8.32;4.20;;;12.90;52.10;;;;;;5021113;28;20046;-43
2022/03/15 10:43:09;;;;;;;8.80;4.35;;;13.00;52.20;;;;;;5019384;28;20485;-42
2022/03/15 10:45:38;;;;;;;7.68;4.55;;;13.00;52.20;;;;;;5018985;28;20053;-42
2022/03/15 10:48:16;;;;;;;7.28;4.20;;;13.00;52.20;;;;;;5021547;28;20642;-45
2022/03/15 10:50:51;;;;;;;9.43;4.43;;;13.00;52.30;;;;;;5021153;28;20061;-42
2022/03/15 10:53:19;;;;;;;11.43;4.80;;;13.00;52.50;;;;;;5022407;28;20061;-42
2022/03/15 10:55:46;;;;;;;7.53;3.75;;;13.00;52.30;;;;;;5024053;28;20053;-43
2022/03/15 10:58:22;;;;;;;6.78;3.70;;;13.00;52.20;;;;;;5021272;28;20057;-42
2022/03/15 11:00:54;;;;;;;9.40;3.88;;;13.10;52.40;;;;;;5013427;28;20049;-46
2022/03/15 11:03:25;;;;;;;12.90;4.30;;;13.10;52.50;;;;;;5014001;28;20060;-42
2022/03/15 11:05:57;;;;;;;9.88;4.47;;;13.10;52.60;;;;;;5013086;28;20408;-43
2022/03/15 11:08:25;;;;;;;8.63;3.97;;;13.10;52.50;;;;;;5011837;28;20049;-42
2022/03/15 11:10:53;;;;;;;7.45;4.03;;;13.10;52.50;;;;;;5017322;28;21025;-43
2022/03/15 11:13:30;;;;;;;9.68;4.07;;;13.10;52.60;;;;;;5018768;28;20050;-43
2022/03/15 11:15:59;;;;;;;9.38;3.97;;;13.10;53.10;;;;;;5014512;28;20494;-42
2022/03/15 11:18:34;;;;;;;9.30;3.72;;;13.10;53.00;;;;;;5022960;28;20068;-42
2022/03/15 11:21:04;;;;;;;8.57;4.07;;;13.10;53.10;;;;;;5024627;28;20062;-42
2022/03/15 11:23:40;;;;;;;6.78;3.75;;;13.10;53.20;;;;;;5023864;28;20421;-42
2022/03/15 11:26:08;;;;;;;11.30;4.57;;;13.20;53.30;;;;;;5025105;28;20057;-42
2022/03/15 11:28:37;;;;;;;8.40;3.92;;;13.10;53.30;;;;;;5024279;28;20068;-43
2022/03/15 11:31:05;;;;;;;7.05;3.90;;;13.20;53.40;;;;;;5022261;28;20124;-42
2022/03/15 11:33:34;;;;;;;7.47;3.97;;;13.20;53.40;;;;;;5022842;28;20512;-43
2022/03/15 11:36:03;;;;;;;7.28;3.97;;;13.20;53.40;;;;;;5023240;28;20057;-42
2022/03/15 11:38:33;;;;;;;9.82;4.00;;;13.20;53.40;;;;;;5022510;28;20061;-44
2022/03/15 11:41:00;;;;;;;11.70;4.20;;;13.20;53.40;;;;;;5021524;28;20057;-42
2022/03/15 11:43:40;;;;;;;9.68;3.90;;;13.30;53.40;;;;;;5020198;28;20053;-42
2022/03/15 11:46:13;;;;;;;7.45;3.83;;;13.20;53.40;;;;;;5024697;28;20494;-43
2022/03/15 11:49:09;;;;;;;8.63;3.67;;;13.30;53.40;;;;;;5022890;28;20061;-43
2022/03/15 11:51:46;;;;;;;6.65;3.00;;;13.30;53.40;;;;;;5023034;28;20433;-42
2022/03/15 11:54:29;;;;;;;7.68;3.53;;;13.20;53.30;;;;;;5019455;28;20057;-42
2022/03/15 11:57:01;;;;;;;8.35;4.28;;;13.20;53.30;;;;;;5020330;28;20421;-42
2022/03/15 11:59:47;;;;;;;10.10;4.47;;;13.20;53.30;;;;;;5024381;28;20061;-42
2022/03/15 12:02:26;;;;;;;9.95;4.10;;;13.20;53.70;;;;;;5010273;28;20045;-43
2022/03/15 12:04:54;;;;;;;9.88;3.97;;;13.20;53.60;;;;;;5008601;28;20112;-43
2022/03/15 12:07:42;;;;;;;11.95;4.55;;;13.20;53.80;;;;;;5006639;28;20068;-42
2022/03/15 12:10:10;;;;;;;6.43;4.07;;;13.20;53.90;;;;;;5011528;28;20045;-43
2022/03/15 12:12:40;;;;;;;8.93;4.10;;;13.20;53.90;;;;;;5010022;28;20061;-42
2022/03/15 12:15:15;;;;;;;9.75;3.88;;;13.10;53.90;;;;;;5020439;28;20512;-42
2022/03/15 12:17:43;;;;;;;9.48;3.78;;;13.20;53.90;;;;;;5023367;28;20053;-43
2022/03/15 12:20:16;;;;;;;6.57;3.80;;;13.10;54.00;;;;;;5021609;28;20061;-42
2022/03/15 12:22:50;;;;;;;6.47;3.92;;;13.20;53.90;;;;;;5023172;28;20052;-42
2022/03/15 12:25:17;;;;;;;7.43;3.90;;;13.10;53.90;;;;;;5022772;28;20489;-42
2022/03/15 12:27:47;;;;;;;9.15;4.55;;;13.10;53.90;;;;;;5023027;28;20064;-42
2022/03/15 12:30:28;;;;;;;7.85;4.10;;;13.10;54.10;;;;;;5021453;28;20054;-42
2022/03/15 12:32:57;;;;;;;7.28;4.28;;;13.10;54.10;;;;;;5021702;28;20045;-43
2022/03/15 12:35:25;;;;;;;10.07;4.00;;;13.10;54.10;;;;;;5021154;28;20057;-42
2022/03/15 12:38:05;;;;;;;7.07;3.95;;;13.10;54.10;;;;;;5022975;28;20057;-42
2022/03/15 12:40:32;;;;;;;8.27;3.63;;;13.00;54.30;;;;;;5020331;28;20048;-43
2022/03/15 12:43:03;;;;;;;8.57;4.22;;;13.00;54.20;;;;;;5020637;28;20789;-43
2022/03/15 12:45:33;;;;;;;7.93;4.25;;;13.00;54.40;;;;;;5021141;28;20520;-42
2022/03/15 12:48:05;;;;;;;7.97;4.07;;;13.00;54.70;;;;;;5020002;28;20061;-43
2022/03/15 12:50:33;;;;;;;7.30;4.10;;;13.00;54.70;;;;;;5016069;28;20637;-42
2022/03/15 12:53:12;;;;;;;9.18;4.30;;;13.00;54.90;;;;;;5017409;28;20061;-43
2022/03/15 12:55:42;;;;;;;6.28;3.45;;;13.00;54.90;;;;;;5023772;28;21515;-42
2022/03/15 12:58:11;;;;;;;6.40;3.92;;;13.00;54.90;;;;;;5023319;28;20053;-43
2022/03/15 13:00:42;;;;;;;5.60;3.58;;;13.00;55.00;;;;;;5021050;28;20061;-44
2022/03/15 13:03:11;;;;;;;8.13;4.22;;;13.00;55.10;;;;;;5012272;28;20425;-43